Flugplatz Beilngries

Für EDNC sind keine METAR/TAF Berichte vorhanden.
Es werden die Flugwettermeldungen vom Flugplatz Hohenfels Army Air Field in 33 km Entfernung angezeigt.

Bericht für ETIH

vom 15.07. um 18:31 UTC

Wind 4 kt aus 280°

Sichtweite 10 km oder mehr

aufgebrochene Bewölkung in 2700 ft

bedeckt in 7500 ft

Temperatur 17.0°C

Taupunkt 12.0°C

Luftfeuchtigkeit 72%

Luftdruck 1015 hPa

ETIH 151831Z AUTO 28004KT 9999 BKN027 OVC075 17/12 A2997 RMK AO2 CIG 027V075 BKN V SCT SLP141 $
Keine Prognose (TAF) verfügbar.
Impressum